sensor_id;sensor_type;location;lat;lon;timestamp;pressure;altitude;pressure_sealevel;temperature;humidity
48892;BME280;50130;52.150;5.236;2023-02-24T00:02:36;101458.0;;;2.16;96.02
48892;BME280;50130;52.150;5.236;2023-02-24T00:04:12;101463.0;;;2.44;94.48
48892;BME280;50130;52.150;5.236;2023-02-24T00:05:48;101459.0;;;2.35;94.21
48892;BME280;50130;52.150;5.236;2023-02-24T00:09:01;101458.0;;;2.31;95.26
48892;BME280;50130;52.150;5.236;2023-02-24T00:10:38;101455.0;;;2.29;94.86
48892;BME280;50130;52.150;5.236;2023-02-24T00:12:15;101446.0;;;2.19;95.13
48892;BME280;50130;52.150;5.236;2023-02-24T00:13:51;101448.0;;;2.23;94.69
48892;BME280;50130;52.150;5.236;2023-02-24T00:17:04;101443.0;;;2.08;95.1
48892;BME280;50130;52.150;5.236;2023-02-24T00:18:42;101440.0;;;2.08;95.67
48892;BME280;50130;52.150;5.236;2023-02-24T00:20:19;101432.0;;;2.02;95.5
48892;BME280;50130;52.150;5.236;2023-02-24T00:23:32;101428.0;;;2.12;95.27
48892;BME280;50130;52.150;5.236;2023-02-24T00:25:09;101423.0;;;2.02;95.95
48892;BME280;50130;52.150;5.236;2023-02-24T00:26:50;101419.0;;;2.04;95.99
48892;BME280;50130;52.150;5.236;2023-02-24T00:28:27;101414.0;;;2.06;95.78
48892;BME280;50130;52.150;5.236;2023-02-24T00:31:43;101416.0;;;1.9;96.26
48892;BME280;50130;52.150;5.236;2023-02-24T00:33:19;101417.0;;;1.94;95.93
48892;BME280;50130;52.150;5.236;2023-02-24T00:34:55;101413.0;;;2.05;95.57
48892;BME280;50130;52.150;5.236;2023-02-24T00:38:08;101410.0;;;1.95;95.97
48892;BME280;50130;52.150;5.236;2023-02-24T00:39:44;101415.0;;;1.97;95.86
48892;BME280;50130;52.150;5.236;2023-02-24T00:41:22;101412.0;;;1.87;95.97
48892;BME280;50130;52.150;5.236;2023-02-24T00:44:37;101409.0;;;1.85;95.81
48892;BME280;50130;52.150;5.236;2023-02-24T00:46:16;101408.0;;;1.95;95.68
48892;BME280;50130;52.150;5.236;2023-02-24T00:47:53;101410.0;;;1.79;95.9
48892;BME280;50130;52.150;5.236;2023-02-24T00:49:30;101409.0;;;2.05;95.59
48892;BME280;50130;52.150;5.236;2023-02-24T00:52:47;101406.0;;;2.02;95.26
48892;BME280;50130;52.150;5.236;2023-02-24T00:54:23;101399.0;;;1.9;95.31
48892;BME280;50130;52.150;5.236;2023-02-24T00:56:01;101394.0;;;2.0;95.86
48892;BME280;50130;52.150;5.236;2023-02-24T00:59:15;101390.0;;;1.93;95.35
48892;BME280;50130;52.150;5.236;2023-02-24T01:00:52;101392.0;;;1.85;95.63
48892;BME280;50130;52.150;5.236;2023-02-24T01:02:28;101386.0;;;1.75;95.88
48892;BME280;50130;52.150;5.236;2023-02-24T01:04:05;101380.0;;;1.83;96.31
48892;BME280;50130;52.150;5.236;2023-02-24T01:07:18;101377.0;;;1.82;96.12
48892;BME280;50130;52.150;5.236;2023-02-24T01:08:56;101380.0;;;1.84;96.1
48892;BME280;50130;52.150;5.236;2023-02-24T01:10:34;101371.0;;;1.82;96.46
48892;BME280;50130;52.150;5.236;2023-02-24T01:13:48;101365.0;;;1.9;95.91
48892;BME280;50130;52.150;5.236;2023-02-24T01:15:24;101363.0;;;1.87;96.07
48892;BME280;50130;52.150;5.236;2023-02-24T01:17:00;101362.0;;;1.98;95.19
48892;BME280;50130;52.150;5.236;2023-02-24T01:20:16;101351.0;;;1.82;95.74
48892;BME280;50130;52.150;5.236;2023-02-24T01:21:52;101350.0;;;1.68;96.28
48892;BME280;50130;52.150;5.236;2023-02-24T01:23:29;101350.0;;;2.0;95.75
48892;BME280;50130;52.150;5.236;2023-02-24T01:25:05;101350.0;;;2.13;94.81
48892;BME280;50130;52.150;5.236;2023-02-24T01:29:55;101336.0;;;1.67;95.78
48892;BME280;50130;52.150;5.236;2023-02-24T01:31:31;101332.0;;;1.7;96.58
48892;BME280;50130;52.150;5.236;2023-02-24T01:34:44;101326.0;;;1.72;96.29
48892;BME280;50130;52.150;5.236;2023-02-24T01:36:23;101325.0;;;1.66;96.27
48892;BME280;50130;52.150;5.236;2023-02-24T01:38:00;101319.0;;;1.86;95.32
48892;BME280;50130;52.150;5.236;2023-02-24T01:39:36;101314.0;;;1.84;95.34
48892;BME280;50130;52.150;5.236;2023-02-24T01:42:52;101307.0;;;1.95;94.76
48892;BME280;50130;52.150;5.236;2023-02-24T01:45:33;101308.0;;;1.93;94.84
48892;BME280;50130;52.150;5.236;2023-02-24T01:47:10;101307.0;;;1.87;94.93
48892;BME280;50130;52.150;5.236;2023-02-24T01:48:47;101297.0;;;1.81;95.09
48892;BME280;50130;52.150;5.236;2023-02-24T01:50:24;101292.0;;;1.77;95.44
48892;BME280;50130;52.150;5.236;2023-02-24T01:53:45;101286.0;;;1.72;96.02
48892;BME280;50130;52.150;5.236;2023-02-24T01:55:24;101287.0;;;1.98;95.37
48892;BME280;50130;52.150;5.236;2023-02-24T01:57:04;101282.0;;;1.78;95.51
48892;BME280;50130;52.150;5.236;2023-02-24T01:58:42;101286.0;;;1.68;96.06
48892;BME280;50130;52.150;5.236;2023-02-24T02:01:57;101280.0;;;1.85;95.79
48892;BME280;50130;52.150;5.236;2023-02-24T02:03:39;101275.0;;;1.88;95.88
48892;BME280;50130;52.150;5.236;2023-02-24T02:05:16;101275.0;;;1.75;95.86
48892;BME280;50130;52.150;5.236;2023-02-24T02:06:53;101276.0;;;1.81;95.58
48892;BME280;50130;52.150;5.236;2023-02-24T02:10:10;101269.0;;;1.81;95.99
48892;BME280;50130;52.150;5.236;2023-02-24T02:11:47;101272.0;;;1.79;96.32
48892;BME280;50130;52.150;5.236;2023-02-24T02:13:25;101269.0;;;1.86;95.65
48892;BME280;50130;52.150;5.236;2023-02-24T02:16:55;101270.0;;;1.89;95.05
48892;BME280;50130;52.150;5.236;2023-02-24T02:18:48;101266.0;;;1.92;95.21
48892;BME280;50130;52.150;5.236;2023-02-24T02:20:50;101267.0;;;1.71;96.25
48892;BME280;50130;52.150;5.236;2023-02-24T02:22:47;101267.0;;;1.76;96.23
48892;BME280;50130;52.150;5.236;2023-02-24T02:25:17;101262.0;;;1.74;95.96
48892;BME280;50130;52.150;5.236;2023-02-24T02:27:13;101260.0;;;1.71;96.06
48892;BME280;50130;52.150;5.236;2023-02-24T02:29:52;101255.0;;;1.68;96.42
48892;BME280;50130;52.150;5.236;2023-02-24T02:34:28;101246.0;;;1.69;96.41
48892;BME280;50130;52.150;5.236;2023-02-24T02:36:30;101221.0;;;1.55;96.75
48892;BME280;50130;52.150;5.236;2023-02-24T02:38:13;101223.0;;;1.76;96.23
48892;BME280;50130;52.150;5.236;2023-02-24T02:41:48;101221.0;;;1.69;96.33
48892;BME280;50130;52.150;5.236;2023-02-24T02:43:31;101216.0;;;1.64;96.0
48892;BME280;50130;52.150;5.236;2023-02-24T02:45:15;101219.0;;;1.66;95.89
48892;BME280;50130;52.150;5.236;2023-02-24T02:47:00;101213.0;;;1.58;96.35
48892;BME280;50130;52.150;5.236;2023-02-24T02:48:46;101217.0;;;1.53;96.16
48892;BME280;50130;52.150;5.236;2023-02-24T02:52:13;101211.0;;;1.48;96.21
48892;BME280;50130;52.150;5.236;2023-02-24T02:53:58;101213.0;;;1.43;96.62
48892;BME280;50130;52.150;5.236;2023-02-24T02:55:39;101210.0;;;1.62;96.02
48892;BME280;50130;52.150;5.236;2023-02-24T02:57:22;101211.0;;;1.5;96.46
48892;BME280;50130;52.150;5.236;2023-02-24T03:00:40;101211.0;;;1.53;96.16
48892;BME280;50130;52.150;5.236;2023-02-24T03:02:20;101208.0;;;1.55;96.48
48892;BME280;50130;52.150;5.236;2023-02-24T03:04:03;101205.0;;;1.63;95.92
48892;BME280;50130;52.150;5.236;2023-02-24T03:05:45;101194.0;;;1.5;96.03
48892;BME280;50130;52.150;5.236;2023-02-24T03:09:10;101190.0;;;1.5;96.42
48892;BME280;50130;52.150;5.236;2023-02-24T03:10:51;101190.0;;;1.79;95.71
48892;BME280;50130;52.150;5.236;2023-02-24T03:12:29;101187.0;;;1.64;95.82
48892;BME280;50130;52.150;5.236;2023-02-24T03:14:10;101178.0;;;1.58;96.14
48892;BME280;50130;52.150;5.236;2023-02-24T03:15:51;101186.0;;;1.58;95.86
48892;BME280;50130;52.150;5.236;2023-02-24T03:19:14;101176.0;;;1.56;96.31
48892;BME280;50130;52.150;5.236;2023-02-24T03:20:56;101173.0;;;1.51;96.98
48892;BME280;50130;52.150;5.236;2023-02-24T03:22:40;101173.0;;;1.51;96.9
48892;BME280;50130;52.150;5.236;2023-02-24T03:24:20;101166.0;;;1.55;97.03
48892;BME280;50130;52.150;5.236;2023-02-24T03:27:44;101158.0;;;1.84;96.33
48892;BME280;50130;52.150;5.236;2023-02-24T03:29:28;101158.0;;;1.71;96.1
48892;BME280;50130;52.150;5.236;2023-02-24T03:31:14;101155.0;;;1.77;95.76
48892;BME280;50130;52.150;5.236;2023-02-24T03:32:55;101148.0;;;1.65;96.31
48892;BME280;50130;52.150;5.236;2023-02-24T03:36:24;101145.0;;;1.7;96.22
48892;BME280;50130;52.150;5.236;2023-02-24T03:38:01;101143.0;;;1.62;96.44
48892;BME280;50130;52.150;5.236;2023-02-24T03:39:39;101141.0;;;1.71;96.74
48892;BME280;50130;52.150;5.236;2023-02-24T03:41:15;101144.0;;;1.66;97.2
48892;BME280;50130;52.150;5.236;2023-02-24T03:44:35;101146.0;;;1.8;96.8
48892;BME280;50130;52.150;5.236;2023-02-24T03:46:12;101142.0;;;1.71;96.58
48892;BME280;50130;52.150;5.236;2023-02-24T03:47:50;101143.0;;;1.69;96.73
48892;BME280;50130;52.150;5.236;2023-02-24T03:49:26;101138.0;;;1.68;97.06
48892;BME280;50130;52.150;5.236;2023-02-24T03:52:43;101137.0;;;1.72;97.2
48892;BME280;50130;52.150;5.236;2023-02-24T03:54:41;101131.0;;;1.74;97.12
48892;BME280;50130;52.150;5.236;2023-02-24T03:56:34;101131.0;;;1.72;97.32
48892;BME280;50130;52.150;5.236;2023-02-24T03:58:17;101126.0;;;1.83;97.4
48892;BME280;50130;52.150;5.236;2023-02-24T04:00:06;101125.0;;;1.82;97.49
48892;BME280;50130;52.150;5.236;2023-02-24T04:03:32;101121.0;;;1.81;97.44
48892;BME280;50130;52.150;5.236;2023-02-24T04:05:15;101118.0;;;1.93;97.38
48892;BME280;50130;52.150;5.236;2023-02-24T04:06:57;101121.0;;;1.91;97.41
48892;BME280;50130;52.150;5.236;2023-02-24T04:08:41;101120.0;;;2.02;97.57
48892;BME280;50130;52.150;5.236;2023-02-24T04:10:22;101113.0;;;2.05;97.39
48892;BME280;50130;52.150;5.236;2023-02-24T04:13:49;101111.0;;;1.98;97.5
48892;BME280;50130;52.150;5.236;2023-02-24T04:15:29;101110.0;;;2.05;97.61
48892;BME280;50130;52.150;5.236;2023-02-24T04:17:13;101111.0;;;2.05;97.77
48892;BME280;50130;52.150;5.236;2023-02-24T04:18:57;101098.0;;;2.05;98.18
48892;BME280;50130;52.150;5.236;2023-02-24T04:22:16;101098.0;;;2.09;98.06
48892;BME280;50130;52.150;5.236;2023-02-24T04:23:56;101097.0;;;2.17;97.9
48892;BME280;50130;52.150;5.236;2023-02-24T04:25:35;101101.0;;;2.31;97.6
48892;BME280;50130;52.150;5.236;2023-02-24T04:27:14;101097.0;;;2.39;97.27
48892;BME280;50130;52.150;5.236;2023-02-24T04:30:33;101092.0;;;2.34;97.64
48892;BME280;50130;52.150;5.236;2023-02-24T04:32:12;101086.0;;;2.37;97.51
48892;BME280;50130;52.150;5.236;2023-02-24T04:33:51;101077.0;;;2.32;97.75
48892;BME280;50130;52.150;5.236;2023-02-24T04:35:27;101075.0;;;2.42;97.85
48892;BME280;50130;52.150;5.236;2023-02-24T04:38:39;101068.0;;;2.4;97.79
48892;BME280;50130;52.150;5.236;2023-02-24T04:40:18;101064.0;;;2.44;97.95
48892;BME280;50130;52.150;5.236;2023-02-24T04:41:54;101051.0;;;2.42;97.79
48892;BME280;50130;52.150;5.236;2023-02-24T04:45:07;101053.0;;;2.5;97.62
48892;BME280;50130;52.150;5.236;2023-02-24T04:46:44;101051.0;;;2.48;97.46
48892;BME280;50130;52.150;5.236;2023-02-24T04:48:21;101046.0;;;2.52;97.34
48892;BME280;50130;52.150;5.236;2023-02-24T04:49:57;101043.0;;;2.54;97.09
48892;BME280;50130;52.150;5.236;2023-02-24T04:53:13;101042.0;;;2.56;97.49
48892;BME280;50130;52.150;5.236;2023-02-24T04:54:49;101042.0;;;2.54;97.83
48892;BME280;50130;52.150;5.236;2023-02-24T04:56:25;101051.0;;;2.59;97.72
48892;BME280;50130;52.150;5.236;2023-02-24T04:59:38;101047.0;;;2.58;97.76
48892;BME280;50130;52.150;5.236;2023-02-24T05:01:14;101044.0;;;2.56;97.8
48892;BME280;50130;52.150;5.236;2023-02-24T05:02:52;101039.0;;;2.56;98.19
48892;BME280;50130;52.150;5.236;2023-02-24T05:06:13;101032.0;;;2.6;98.17
48892;BME280;50130;52.150;5.236;2023-02-24T05:07:50;101033.0;;;2.64;98.11
48892;BME280;50130;52.150;5.236;2023-02-24T05:09:26;101031.0;;;2.7;98.13
48892;BME280;50130;52.150;5.236;2023-02-24T05:11:02;101024.0;;;2.72;97.78
48892;BME280;50130;52.150;5.236;2023-02-24T05:14:16;101014.0;;;2.71;97.73
48892;BME280;50130;52.150;5.236;2023-02-24T05:15:56;101019.0;;;2.76;97.65
48892;BME280;50130;52.150;5.236;2023-02-24T05:17:33;101015.0;;;2.66;97.84
48892;BME280;50130;52.150;5.236;2023-02-24T05:20:49;101008.0;;;2.73;97.87
48892;BME280;50130;52.150;5.236;2023-02-24T05:22:28;101006.0;;;2.7;97.92
48892;BME280;50130;52.150;5.236;2023-02-24T05:24:04;101005.0;;;2.75;98.03
48892;BME280;50130;52.150;5.236;2023-02-24T05:25:40;100995.0;;;2.76;97.83
48892;BME280;50130;52.150;5.236;2023-02-24T05:28:54;100991.0;;;2.74;97.88
48892;BME280;50130;52.150;5.236;2023-02-24T05:30:31;100991.0;;;2.75;97.99
48892;BME280;50130;52.150;5.236;2023-02-24T05:32:08;100985.0;;;2.83;97.73
48892;BME280;50130;52.150;5.236;2023-02-24T05:35:24;100978.0;;;2.91;97.27
48892;BME280;50130;52.150;5.236;2023-02-24T05:37:02;100976.0;;;2.79;97.46
48892;BME280;50130;52.150;5.236;2023-02-24T05:38:38;100972.0;;;2.82;97.46
48892;BME280;50130;52.150;5.236;2023-02-24T05:40:14;100962.0;;;2.89;97.53
48892;BME280;50130;52.150;5.236;2023-02-24T05:43:29;100959.0;;;2.87;97.41
48892;BME280;50130;52.150;5.236;2023-02-24T05:45:07;100952.0;;;3.07;96.79
48892;BME280;50130;52.150;5.236;2023-02-24T05:46:44;100948.0;;;2.99;97.0
48892;BME280;50130;52.150;5.236;2023-02-24T05:49:56;100947.0;;;2.99;97.15
48892;BME280;50130;52.150;5.236;2023-02-24T05:51:32;100934.0;;;3.12;96.57
48892;BME280;50130;52.150;5.236;2023-02-24T05:53:09;100930.0;;;3.22;96.11
48892;BME280;50130;52.150;5.236;2023-02-24T05:56:22;100926.0;;;3.26;95.58
48892;BME280;50130;52.150;5.236;2023-02-24T05:57:57;100924.0;;;3.24;95.59
48892;BME280;50130;52.150;5.236;2023-02-24T05:59:34;100917.0;;;3.39;95.41
48892;BME280;50130;52.150;5.236;2023-02-24T06:01:10;100918.0;;;3.43;95.1
48892;BME280;50130;52.150;5.236;2023-02-24T06:04:23;100916.0;;;3.47;94.98
48892;BME280;50130;52.150;5.236;2023-02-24T06:06:00;100912.0;;;3.39;95.33
48892;BME280;50130;52.150;5.236;2023-02-24T06:07:36;100905.0;;;3.45;95.23
48892;BME280;50130;52.150;5.236;2023-02-24T06:10:48;100905.0;;;3.52;94.97
48892;BME280;50130;52.150;5.236;2023-02-24T06:12:26;100901.0;;;3.71;94.3
48892;BME280;50130;52.150;5.236;2023-02-24T06:14:04;100898.0;;;3.77;93.59
48892;BME280;50130;52.150;5.236;2023-02-24T06:17:16;100897.0;;;3.77;92.74
48892;BME280;50130;52.150;5.236;2023-02-24T06:18:53;100894.0;;;3.8;93.08
48892;BME280;50130;52.150;5.236;2023-02-24T06:20:29;100893.0;;;3.83;93.02
48892;BME280;50130;52.150;5.236;2023-02-24T06:22:06;100896.0;;;3.84;92.9
48892;BME280;50130;52.150;5.236;2023-02-24T06:25:18;100894.0;;;3.85;92.95
48892;BME280;50130;52.150;5.236;2023-02-24T06:26:56;100885.0;;;3.83;93.17
48892;BME280;50130;52.150;5.236;2023-02-24T06:28:32;100886.0;;;3.84;92.83
48892;BME280;50130;52.150;5.236;2023-02-24T06:31:46;100889.0;;;3.92;92.85
48892;BME280;50130;52.150;5.236;2023-02-24T06:33:22;100883.0;;;3.9;92.68
48892;BME280;50130;52.150;5.236;2023-02-24T06:34:58;100882.0;;;3.91;92.72
48892;BME280;50130;52.150;5.236;2023-02-24T06:38:12;100880.0;;;3.98;92.89
48892;BME280;50130;52.150;5.236;2023-02-24T06:39:48;100883.0;;;4.01;91.66
48892;BME280;50130;52.150;5.236;2023-02-24T06:41:24;100873.0;;;4.01;91.75
48892;BME280;50130;52.150;5.236;2023-02-24T06:43:00;100872.0;;;3.99;91.8
48892;BME280;50130;52.150;5.236;2023-02-24T06:46:15;100868.0;;;4.09;92.16
48892;BME280;50130;52.150;5.236;2023-02-24T06:47:51;100865.0;;;4.2;91.76
48892;BME280;50130;52.150;5.236;2023-02-24T06:49:28;100864.0;;;4.24;91.48
48892;BME280;50130;52.150;5.236;2023-02-24T06:52:48;100855.0;;;4.38;90.84
48892;BME280;50130;52.150;5.236;2023-02-24T06:54:26;100852.0;;;4.39;90.28
48892;BME280;50130;52.150;5.236;2023-02-24T06:56:04;100852.0;;;4.33;90.45
48892;BME280;50130;52.150;5.236;2023-02-24T06:57:41;100855.0;;;4.45;89.59
48892;BME280;50130;52.150;5.236;2023-02-24T07:00:53;100856.0;;;4.38;90.28
48892;BME280;50130;52.150;5.236;2023-02-24T07:02:29;100858.0;;;4.34;90.97
48892;BME280;50130;52.150;5.236;2023-02-24T07:04:05;100859.0;;;4.43;89.99
48892;BME280;50130;52.150;5.236;2023-02-24T07:07:21;100851.0;;;4.53;88.55
48892;BME280;50130;52.150;5.236;2023-02-24T07:08:57;100835.0;;;4.53;89.49
48892;BME280;50130;52.150;5.236;2023-02-24T07:10:34;100832.0;;;4.53;89.73
48892;BME280;50130;52.150;5.236;2023-02-24T07:13:47;100835.0;;;4.66;88.92
48892;BME280;50130;52.150;5.236;2023-02-24T07:15:23;100832.0;;;4.66;89.36
48892;BME280;50130;52.150;5.236;2023-02-24T07:17:00;100831.0;;;4.62;90.0
48892;BME280;50130;52.150;5.236;2023-02-24T07:18:37;100831.0;;;4.67;89.07
48892;BME280;50130;52.150;5.236;2023-02-24T07:21:50;100826.0;;;4.74;89.9
48892;BME280;50130;52.150;5.236;2023-02-24T07:23:31;100830.0;;;4.72;90.09
48892;BME280;50130;52.150;5.236;2023-02-24T07:25:07;100822.0;;;4.82;89.1
48892;BME280;50130;52.150;5.236;2023-02-24T07:28:19;100822.0;;;4.79;89.35
48892;BME280;50130;52.150;5.236;2023-02-24T07:29:55;100822.0;;;4.82;88.52
48892;BME280;50130;52.150;5.236;2023-02-24T07:31:31;100817.0;;;4.95;88.97
48892;BME280;50130;52.150;5.236;2023-02-24T07:33:07;100812.0;;;5.03;88.38
48892;BME280;50130;52.150;5.236;2023-02-24T07:36:19;100817.0;;;5.08;88.55
48892;BME280;50130;52.150;5.236;2023-02-24T07:37:56;100818.0;;;5.15;87.59
48892;BME280;50130;52.150;5.236;2023-02-24T07:39:33;100816.0;;;5.12;89.06
48892;BME280;50130;52.150;5.236;2023-02-24T07:42:48;100816.0;;;5.09;88.78
48892;BME280;50130;52.150;5.236;2023-02-24T07:44:24;100806.0;;;5.23;87.7
48892;BME280;50130;52.150;5.236;2023-02-24T07:46:05;100811.0;;;5.31;87.93
48892;BME280;50130;52.150;5.236;2023-02-24T07:49:21;100805.0;;;5.29;88.3
48892;BME280;50130;52.150;5.236;2023-02-24T07:50:57;100796.0;;;5.36;88.08
48892;BME280;50130;52.150;5.236;2023-02-24T07:52:33;100796.0;;;5.46;88.42
48892;BME280;50130;52.150;5.236;2023-02-24T07:54:10;100795.0;;;5.45;87.75
48892;BME280;50130;52.150;5.236;2023-02-24T07:57:22;100794.0;;;5.38;88.29
48892;BME280;50130;52.150;5.236;2023-02-24T07:58:59;100791.0;;;5.47;88.61
48892;BME280;50130;52.150;5.236;2023-02-24T08:00:37;100799.0;;;5.49;88.57
48892;BME280;50130;52.150;5.236;2023-02-24T08:03:51;100798.0;;;5.48;89.26
48892;BME280;50130;52.150;5.236;2023-02-24T08:05:28;100800.0;;;5.51;89.2
48892;BME280;50130;52.150;5.236;2023-02-24T08:07:04;100794.0;;;5.54;89.06
48892;BME280;50130;52.150;5.236;2023-02-24T08:10:18;100790.0;;;5.69;89.34
48892;BME280;50130;52.150;5.236;2023-02-24T08:11:55;100796.0;;;5.61;88.51
48892;BME280;50130;52.150;5.236;2023-02-24T08:13:31;100789.0;;;5.58;88.53
48892;BME280;50130;52.150;5.236;2023-02-24T08:15:08;100785.0;;;5.66;89.21
48892;BME280;50130;52.150;5.236;2023-02-24T08:18:25;100780.0;;;5.72;90.21
48892;BME280;50130;52.150;5.236;2023-02-24T08:20:01;100780.0;;;5.75;89.74
48892;BME280;50130;52.150;5.236;2023-02-24T08:21:38;100780.0;;;5.75;89.62
48892;BME280;50130;52.150;5.236;2023-02-24T08:24:53;100777.0;;;5.76;90.95
48892;BME280;50130;52.150;5.236;2023-02-24T08:26:29;100767.0;;;5.8;90.7
48892;BME280;50130;52.150;5.236;2023-02-24T08:28:07;100752.0;;;5.86;90.81
48892;BME280;50130;52.150;5.236;2023-02-24T08:29:46;100761.0;;;5.89;89.96
48892;BME280;50130;52.150;5.236;2023-02-24T08:33:00;100762.0;;;5.88;91.17
48892;BME280;50130;52.150;5.236;2023-02-24T08:34:36;100760.0;;;5.94;91.45
48892;BME280;50130;52.150;5.236;2023-02-24T08:36:15;100741.0;;;5.93;91.84
48892;BME280;50130;52.150;5.236;2023-02-24T08:39:29;100743.0;;;5.93;91.47
48892;BME280;50130;52.150;5.236;2023-02-24T08:41:11;100740.0;;;5.94;92.05
48892;BME280;50130;52.150;5.236;2023-02-24T08:42:48;100739.0;;;6.08;91.71
48892;BME280;50130;52.150;5.236;2023-02-24T08:44:24;100747.0;;;6.04;91.82
48892;BME280;50130;52.150;5.236;2023-02-24T08:47:48;100749.0;;;6.16;91.92
48892;BME280;50130;52.150;5.236;2023-02-24T08:49:24;100751.0;;;6.1;91.86
48892;BME280;50130;52.150;5.236;2023-02-24T08:51:04;100755.0;;;6.09;92.6
48892;BME280;50130;52.150;5.236;2023-02-24T08:52:41;100744.0;;;6.11;92.38
48892;BME280;50130;52.150;5.236;2023-02-24T08:55:58;100735.0;;;6.15;93.15
48892;BME280;50130;52.150;5.236;2023-02-24T08:57:35;100732.0;;;6.12;92.87
48892;BME280;50130;52.150;5.236;2023-02-24T08:59:12;100730.0;;;6.19;92.45
48892;BME280;50130;52.150;5.236;2023-02-24T09:02:25;100723.0;;;6.13;92.76
48892;BME280;50130;52.150;5.236;2023-02-24T09:04:04;100715.0;;;6.25;92.32
48892;BME280;50130;52.150;5.236;2023-02-24T09:05:42;100715.0;;;6.27;92.89
48892;BME280;50130;52.150;5.236;2023-02-24T09:07:19;100709.0;;;6.34;92.86
48892;BME280;50130;52.150;5.236;2023-02-24T09:10:33;100705.0;;;6.36;93.18
48892;BME280;50130;52.150;5.236;2023-02-24T09:12:11;100703.0;;;6.48;93.02
48892;BME280;50130;52.150;5.236;2023-02-24T09:13:48;100711.0;;;6.47;92.72
48892;BME280;50130;52.150;5.236;2023-02-24T09:17:02;100699.0;;;6.3;93.47
48892;BME280;50130;52.150;5.236;2023-02-24T09:18:40;100700.0;;;6.32;93.77
48892;BME280;50130;52.150;5.236;2023-02-24T09:20:17;100688.0;;;6.42;94.15
48892;BME280;50130;52.150;5.236;2023-02-24T09:21:55;100684.0;;;6.41;94.81
48892;BME280;50130;52.150;5.236;2023-02-24T09:25:10;100674.0;;;6.45;94.85
48892;BME280;50130;52.150;5.236;2023-02-24T09:26:48;100678.0;;;6.49;95.07
48892;BME280;50130;52.150;5.236;2023-02-24T09:28:25;100672.0;;;6.45;95.29
48892;BME280;50130;52.150;5.236;2023-02-24T09:31:40;100659.0;;;6.45;95.57
48892;BME280;50130;52.150;5.236;2023-02-24T09:33:18;100669.0;;;6.42;96.28
48892;BME280;50130;52.150;5.236;2023-02-24T09:34:55;100673.0;;;6.53;96.6
48892;BME280;50130;52.150;5.236;2023-02-24T09:38:07;100664.0;;;6.55;96.76
48892;BME280;50130;52.150;5.236;2023-02-24T09:39:43;100662.0;;;6.66;97.22
48892;BME280;50130;52.150;5.236;2023-02-24T09:41:23;100660.0;;;6.71;97.03
48892;BME280;50130;52.150;5.236;2023-02-24T09:43:03;100657.0;;;6.73;96.53
48892;BME280;50130;52.150;5.236;2023-02-24T09:46:19;100655.0;;;6.59;97.18
48892;BME280;50130;52.150;5.236;2023-02-24T09:47:55;100656.0;;;6.54;98.05
48892;BME280;50130;52.150;5.236;2023-02-24T09:49:38;100652.0;;;6.53;98.3
48892;BME280;50130;52.150;5.236;2023-02-24T09:51:19;100650.0;;;6.63;98.4
48892;BME280;50130;52.150;5.236;2023-02-24T09:54:36;100648.0;;;6.71;98.55
48892;BME280;50130;52.150;5.236;2023-02-24T09:56:16;100651.0;;;6.78;98.32
48892;BME280;50130;52.150;5.236;2023-02-24T09:57:59;100649.0;;;6.73;98.92
48892;BME280;50130;52.150;5.236;2023-02-24T09:59:47;100644.0;;;6.78;99.2
48892;BME280;50130;52.150;5.236;2023-02-24T10:03:18;100633.0;;;6.84;99.35
48892;BME280;50130;52.150;5.236;2023-02-24T10:05:02;100635.0;;;6.79;99.55
48892;BME280;50130;52.150;5.236;2023-02-24T10:06:44;100626.0;;;6.84;99.76
48892;BME280;50130;52.150;5.236;2023-02-24T10:08:29;100623.0;;;6.67;100.0
48892;BME280;50130;52.150;5.236;2023-02-24T10:10:13;100625.0;;;6.8;100.0
48892;BME280;50130;52.150;5.236;2023-02-24T10:13:32;100624.0;;;6.79;100.0
48892;BME280;50130;52.150;5.236;2023-02-24T10:15:13;100622.0;;;6.89;99.91
48892;BME280;50130;52.150;5.236;2023-02-24T10:16:53;100627.0;;;6.8;100.0
48892;BME280;50130;52.150;5.236;2023-02-24T10:18:32;100627.0;;;6.94;100.0
48892;BME280;50130;52.150;5.236;2023-02-24T10:21:57;100621.0;;;6.97;100.0
48892;BME280;50130;52.150;5.236;2023-02-24T10:23:50;100623.0;;;7.0;100.0
48892;BME280;50130;52.150;5.236;2023-02-24T10:25:39;100617.0;;;7.02;100.0
48892;BME280;50130;52.150;5.236;2023-02-24T10:27:23;100624.0;;;6.88;100.0
48892;BME280;50130;52.150;5.236;2023-02-24T10:29:07;100615.0;;;6.86;100.0
48892;BME280;50130;52.150;5.236;2023-02-24T10:32:41;100607.0;;;6.8;100.0
48892;BME280;50130;52.150;5.236;2023-02-24T10:34:24;100601.0;;;6.81;100.0
48892;BME280;50130;52.150;5.236;2023-02-24T10:36:08;100605.0;;;6.98;100.0
48892;BME280;50130;52.150;5.236;2023-02-24T10:37:45;100605.0;;;6.91;100.0
48892;BME280;50130;52.150;5.236;2023-02-24T10:39:24;100596.0;;;6.84;100.0
48892;BME280;50130;52.150;5.236;2023-02-24T10:42:39;100597.0;;;6.84;100.0
48892;BME280;50130;52.150;5.236;2023-02-24T10:44:20;100595.0;;;6.92;100.0
48892;BME280;50130;52.150;5.236;2023-02-24T10:45:58;100585.0;;;6.93;100.0
48892;BME280;50130;52.150;5.236;2023-02-24T10:49:14;100595.0;;;7.11;100.0
48892;BME280;50130;52.150;5.236;2023-02-24T10:50:55;100592.0;;;7.1;100.0
48892;BME280;50130;52.150;5.236;2023-02-24T10:52:33;100577.0;;;7.03;100.0
48892;BME280;50130;52.150;5.236;2023-02-24T10:54:13;100564.0;;;7.09;100.0
48892;BME280;50130;52.150;5.236;2023-02-24T10:57:41;100555.0;;;7.13;100.0
48892;BME280;50130;52.150;5.236;2023-02-24T10:59:18;100562.0;;;7.26;100.0
48892;BME280;50130;52.150;5.236;2023-02-24T11:00:56;100561.0;;;7.29;100.0
48892;BME280;50130;52.150;5.236;2023-02-24T11:02:46;100559.0;;;7.36;100.0
48892;BME280;50130;52.150;5.236;2023-02-24T11:04:30;100562.0;;;7.29;100.0
48892;BME280;50130;52.150;5.236;2023-02-24T11:08:14;100564.0;;;7.38;100.0
48892;BME280;50130;52.150;5.236;2023-02-24T11:10:10;100566.0;;;7.37;100.0
48892;BME280;50130;52.150;5.236;2023-02-24T11:11:49;100565.0;;;7.27;100.0
48892;BME280;50130;52.150;5.236;2023-02-24T11:13:25;100566.0;;;7.37;100.0
48892;BME280;50130;52.150;5.236;2023-02-24T11:15:06;100565.0;;;7.5;100.0
48892;BME280;50130;52.150;5.236;2023-02-24T11:18:29;100572.0;;;7.52;100.0
48892;BME280;50130;52.150;5.236;2023-02-24T11:20:20;100561.0;;;7.55;100.0
48892;BME280;50130;52.150;5.236;2023-02-24T11:21:58;100558.0;;;7.56;100.0